Terminal Aerodrome Forecast
Issued by NWS

Home | Current Version | Previous Version | Text Only | Print | Product List | Glossary On
Versions: 1 2 3 4 5 6 7 8 9 10 11 12 13 14 15 16
075
FTUS45 KTFX 181728
TAFHVR
TAF
KHVR 181728Z 1818/1918 25011G19KT P6SM FEW060 FEW250
     FM191700 23017G27KT P6SM FEW120 SCT200=

USA.gov is the U.S. government's official web portal to all federal, state and local government web resources and services.